LGKF

Details ICAO LGKF (EFL)
Name Kefallinia
Region Greece
Timezone Europe/Athens (UTC+3.0)
Plans Departing 219
Arriving 476
Stats Elevation 59 ft / 18 m (AMSL)
Location 38.120200° 20.500400°
Runways 1
Magnetic Variation 4.384° E
Sunrise 2021-05-08 03:35:17 UTC / 2021-05-08 06:35:17 Local
Sunset 2021-05-08 17:36:17 UTC / 2021-05-08 20:36:17 Local
Advertisement - Login to hide

Runways

ID Width Length Bearing (true/mag) Surface Threshold Overrun Markings Lighting
14 148 ft / 45 m 8,039 ft / 2,450 m 146.44° / 142.05° CONCRETE 89 ft / 27 m 0 ft / 0 m PREC-APP CENTERLINE EDGE THRESHOLD MALSF
32 148 ft / 45 m 8,039 ft / 2,450 m 326.44° / 322.06° CONCRETE 853 ft / 260 m 0 ft / 0 m PREC-APP CENTERLINE EDGE THRESHOLD MALSF

Map

Weather


0- 5 10 15 20 25 30 35+ Temperature / °C

Clouds and Precipitation
Forecast for 2021-03-22 12:00 UTC. Updated 2 months ago

Ground ~20,000 ft ~40,000 ft Winds

METAR

LGKF 080850Z 34014KT CAVOK 23/17 Q1012

TAF

Not found

Frequencies

Tower 122.25 MHz AFIS INFO
Warning: Do not use this data for real-world aviation or navigation. No guarantee of current accuracy is given.